Back to top

Boise, ID weather

Boise Air Terminal/Gowen Field, Boise, ID: 1/20/2020 03:53
Visibility10 statute milesclear sky
View 7-Day Forecast
Area Summary
Sky/CloudsSky Clear
Weather [last 24 hours]None
Pressure30.26 in.Hg (1025 hPa)
Dew Point21.9 °F (-5.6 °C)
Relative Humidity71.4 %
Temperature30 °F (-1.1 °C)red thermometer
Wind Chill26.4 °F (-3.09 °C)
Reading TimeMinimum to Maximum Temperature
6-hr ending 1/19@22:5330.9 °F to 39.9 °F (-0.6 °C to 4.4 °C)
6-hr ending 1/19@16:5332 °F to 41 °F (0 °C to 5 °C)
6-hr ending 1/19@10:5325 °F to 32 °F (-3.9 °C to 0 °C)
6-hr ending 1/19@04:5328 °F to 36 °F (-2.2 °C to 2.2 °C)
24-hr ending 1/19@23:5325 °F to 41 °F (-3.9 °C to 5 °C)
Wind3.45 MPH (3 KT)
Wind FromNorth (360 Degrees)
Twilight Begins07:39Sunshine Yesterday
Sunrise08:10N/A
Sunset17:43
Twilight Ends18:14
METARKBOI 201053Z 36003KT 10SM CLR M01/M06 A3026 RMK AO2 SLP263 T10111056
Tags: